sensor_id;sensor_type;location;lat;lon;timestamp;pressure;altitude;pressure_sealevel;temperature;humidity
70815;BME280;58428;49.478;10.986;2023-01-05T00:01:06;98642.00;;;10.79;100.00
70815;BME280;58428;49.478;10.986;2023-01-05T00:03:33;98632.13;;;10.83;100.00
70815;BME280;58428;49.478;10.986;2023-01-05T00:06:02;98640.06;;;10.79;100.00
70815;BME280;58428;49.478;10.986;2023-01-05T00:08:28;98618.28;;;10.76;100.00
70815;BME280;58428;49.478;10.986;2023-01-05T00:10:53;98613.84;;;10.71;100.00
70815;BME280;58428;49.478;10.986;2023-01-05T00:13:37;98621.00;;;10.67;100.00
70815;BME280;58428;49.478;10.986;2023-01-05T00:16:22;98631.50;;;10.61;100.00
70815;BME280;58428;49.478;10.986;2023-01-05T00:19:10;98632.47;;;10.56;100.00
70815;BME280;58428;49.478;10.986;2023-01-05T00:21:54;98624.84;;;10.50;100.00
70815;BME280;58428;49.478;10.986;2023-01-05T00:24:40;98621.34;;;10.49;100.00
70815;BME280;58428;49.478;10.986;2023-01-05T00:27:05;98613.72;;;10.51;100.00
70815;BME280;58428;49.478;10.986;2023-01-05T00:29:31;98617.72;;;10.45;100.00
70815;BME280;58428;49.478;10.986;2023-01-05T00:31:56;98610.22;;;10.42;100.00
70815;BME280;58428;49.478;10.986;2023-01-05T00:34:23;98617.06;;;10.31;100.00
70815;BME280;58428;49.478;10.986;2023-01-05T00:36:48;98606.88;;;10.28;100.00
70815;BME280;58428;49.478;10.986;2023-01-05T00:39:14;98603.06;;;10.29;100.00
70815;BME280;58428;49.478;10.986;2023-01-05T00:41:39;98602.44;;;10.32;100.00
70815;BME280;58428;49.478;10.986;2023-01-05T00:44:05;98603.69;;;10.35;100.00
70815;BME280;58428;49.478;10.986;2023-01-05T00:46:30;98604.97;;;10.29;100.00
70815;BME280;58428;49.478;10.986;2023-01-05T00:48:56;98601.47;;;10.28;100.00
70815;BME280;58428;49.478;10.986;2023-01-05T00:51:21;98595.91;;;10.33;100.00
70815;BME280;58428;49.478;10.986;2023-01-05T00:53:47;98592.59;;;10.28;100.00
70815;BME280;58428;49.478;10.986;2023-01-05T00:56:15;98586.50;;;10.31;100.00
70815;BME280;58428;49.478;10.986;2023-01-05T00:58:40;98579.84;;;10.28;100.00
70815;BME280;58428;49.478;10.986;2023-01-05T01:01:10;98572.53;;;10.29;100.00
70815;BME280;58428;49.478;10.986;2023-01-05T01:03:35;98576.66;;;10.27;100.00
70815;BME280;58428;49.478;10.986;2023-01-05T01:06:00;98575.88;;;10.26;100.00
70815;BME280;58428;49.478;10.986;2023-01-05T01:08:26;98582.88;;;10.27;100.00
70815;BME280;58428;49.478;10.986;2023-01-05T01:10:51;98573.50;;;10.25;100.00
70815;BME280;58428;49.478;10.986;2023-01-05T01:13:18;98576.19;;;10.25;100.00
70815;BME280;58428;49.478;10.986;2023-01-05T01:15:43;98563.94;;;10.27;100.00
70815;BME280;58428;49.478;10.986;2023-01-05T01:18:11;98571.91;;;10.32;100.00
70815;BME280;58428;49.478;10.986;2023-01-05T01:20:38;98571.75;;;10.28;100.00
70815;BME280;58428;49.478;10.986;2023-01-05T01:23:04;98571.56;;;10.33;100.00
70815;BME280;58428;49.478;10.986;2023-01-05T01:25:29;98572.53;;;10.37;100.00
70815;BME280;58428;49.478;10.986;2023-01-05T01:27:58;98567.13;;;10.37;100.00
70815;BME280;58428;49.478;10.986;2023-01-05T01:30:23;98550.25;;;10.40;100.00
70815;BME280;58428;49.478;10.986;2023-01-05T01:32:49;98532.09;;;10.41;100.00
70815;BME280;58428;49.478;10.986;2023-01-05T01:35:14;98532.91;;;10.41;100.00
70815;BME280;58428;49.478;10.986;2023-01-05T01:37:39;98530.84;;;10.38;100.00
70815;BME280;58428;49.478;10.986;2023-01-05T01:40:06;98527.97;;;10.43;100.00
70815;BME280;58428;49.478;10.986;2023-01-05T01:42:35;98522.88;;;10.42;100.00
70815;BME280;58428;49.478;10.986;2023-01-05T01:45:16;98521.44;;;10.44;100.00
70815;BME280;58428;49.478;10.986;2023-01-05T01:47:46;98532.44;;;10.39;100.00
70815;BME280;58428;49.478;10.986;2023-01-05T01:50:31;98538.78;;;10.43;100.00
70815;BME280;58428;49.478;10.986;2023-01-05T01:53:02;98532.44;;;10.39;100.00
70815;BME280;58428;49.478;10.986;2023-01-05T01:55:30;98529.84;;;10.43;100.00
70815;BME280;58428;49.478;10.986;2023-01-05T01:57:58;98535.28;;;10.43;100.00
70815;BME280;58428;49.478;10.986;2023-01-05T02:00:25;98523.34;;;10.44;100.00
70815;BME280;58428;49.478;10.986;2023-01-05T02:02:53;98521.44;;;10.44;100.00
70815;BME280;58428;49.478;10.986;2023-01-05T02:05:25;98517.16;;;10.43;100.00
70815;BME280;58428;49.478;10.986;2023-01-05T02:07:52;98513.63;;;10.43;100.00
70815;BME280;58428;49.478;10.986;2023-01-05T02:10:26;98519.50;;;10.45;100.00
70815;BME280;58428;49.478;10.986;2023-01-05T02:24:06;98522.53;;;10.52;100.00
70815;BME280;58428;49.478;10.986;2023-01-05T02:32:22;98531.44;;;10.52;100.00
70815;BME280;58428;49.478;10.986;2023-01-05T02:35:26;98531.28;;;10.57;100.00
70815;BME280;58428;49.478;10.986;2023-01-05T02:40:44;98510.56;;;10.61;100.00
70815;BME280;58428;49.478;10.986;2023-01-05T02:43:13;98513.75;;;10.63;100.00
70815;BME280;58428;49.478;10.986;2023-01-05T02:45:38;98510.38;;;10.66;100.00
70815;BME280;58428;49.478;10.986;2023-01-05T02:48:04;98500.84;;;10.68;100.00
70815;BME280;58428;49.478;10.986;2023-01-05T02:50:57;98508.50;;;10.66;100.00
70815;BME280;58428;49.478;10.986;2023-01-05T02:53:37;98486.50;;;10.68;100.00
70815;BME280;58428;49.478;10.986;2023-01-05T02:58:41;98476.50;;;10.68;100.00
70815;BME280;58428;49.478;10.986;2023-01-05T03:01:12;98481.44;;;10.66;100.00
70815;BME280;58428;49.478;10.986;2023-01-05T03:03:50;98482.84;;;10.72;100.00
70815;BME280;58428;49.478;10.986;2023-01-05T03:08:58;98484.72;;;10.80;100.00
70815;BME280;58428;49.478;10.986;2023-01-05T03:11:38;98485.50;;;10.81;100.00
70815;BME280;58428;49.478;10.986;2023-01-05T03:14:34;98495.19;;;10.82;100.00
70815;BME280;58428;49.478;10.986;2023-01-05T03:17:03;98482.94;;;10.84;100.00
70815;BME280;58428;49.478;10.986;2023-01-05T03:19:32;98498.50;;;10.87;100.00
70815;BME280;58428;49.478;10.986;2023-01-05T03:22:19;98486.84;;;10.95;100.00
70815;BME280;58428;49.478;10.986;2023-01-05T03:25:05;98493.66;;;11.01;100.00
70815;BME280;58428;49.478;10.986;2023-01-05T03:27:50;98479.97;;;11.06;100.00
70815;BME280;58428;49.478;10.986;2023-01-05T03:33:54;98480.09;;;11.09;100.00
70815;BME280;58428;49.478;10.986;2023-01-05T03:36:51;98471.91;;;11.18;100.00
70815;BME280;58428;49.478;10.986;2023-01-05T03:39:18;98463.16;;;11.21;100.00
70815;BME280;58428;49.478;10.986;2023-01-05T03:41:46;98462.47;;;11.24;100.00
70815;BME280;58428;49.478;10.986;2023-01-05T03:44:13;98458.00;;;11.28;100.00
70815;BME280;58428;49.478;10.986;2023-01-05T03:46:40;98457.00;;;11.32;100.00
70815;BME280;58428;49.478;10.986;2023-01-05T03:49:05;98458.28;;;11.35;100.00
70815;BME280;58428;49.478;10.986;2023-01-05T03:51:31;98464.94;;;11.37;100.00
70815;BME280;58428;49.478;10.986;2023-01-05T03:53:56;98459.03;;;11.43;100.00
70815;BME280;58428;49.478;10.986;2023-01-05T03:56:23;98453.28;;;11.45;100.00
70815;BME280;58428;49.478;10.986;2023-01-05T03:58:49;98450.06;;;11.43;100.00
70815;BME280;58428;49.478;10.986;2023-01-05T04:01:14;98457.41;;;11.42;100.00
70815;BME280;58428;49.478;10.986;2023-01-05T04:03:40;98452.50;;;11.44;100.00
70815;BME280;58428;49.478;10.986;2023-01-05T04:06:06;98451.22;;;11.42;100.00
70815;BME280;58428;49.478;10.986;2023-01-05T04:08:31;98455.03;;;11.41;100.00
70815;BME280;58428;49.478;10.986;2023-01-05T04:11:12;98449.47;;;11.38;100.00
70815;BME280;58428;49.478;10.986;2023-01-05T04:13:37;98459.19;;;11.38;100.00
70815;BME280;58428;49.478;10.986;2023-01-05T04:16:03;98455.34;;;11.39;100.00
70815;BME280;58428;49.478;10.986;2023-01-05T04:18:29;98476.69;;;11.41;100.00
70815;BME280;58428;49.478;10.986;2023-01-05T04:20:54;98460.13;;;11.42;100.00
70815;BME280;58428;49.478;10.986;2023-01-05T04:23:19;98465.09;;;11.40;100.00
70815;BME280;58428;49.478;10.986;2023-01-05T04:25:46;98463.16;;;11.41;100.00
70815;BME280;58428;49.478;10.986;2023-01-05T04:28:12;98460.91;;;11.43;100.00
70815;BME280;58428;49.478;10.986;2023-01-05T04:30:37;98456.00;;;11.45;100.00
70815;BME280;58428;49.478;10.986;2023-01-05T04:33:02;98450.56;;;11.45;100.00
70815;BME280;58428;49.478;10.986;2023-01-05T04:35:28;98462.22;;;11.37;100.00
70815;BME280;58428;49.478;10.986;2023-01-05T04:37:53;98451.13;;;11.30;100.00
70815;BME280;58428;49.478;10.986;2023-01-05T04:40:19;98452.56;;;11.28;100.00
70815;BME280;58428;49.478;10.986;2023-01-05T04:42:45;98457.81;;;11.33;100.00
70815;BME280;58428;49.478;10.986;2023-01-05T04:45:14;98465.25;;;11.36;100.00
70815;BME280;58428;49.478;10.986;2023-01-05T04:47:39;98461.13;;;11.38;100.00
70815;BME280;58428;49.478;10.986;2023-01-05T04:50:05;98473.53;;;11.39;100.00
70815;BME280;58428;49.478;10.986;2023-01-05T04:52:31;98474.31;;;11.39;100.00
70815;BME280;58428;49.478;10.986;2023-01-05T04:54:56;98474.00;;;11.41;100.00
70815;BME280;58428;49.478;10.986;2023-01-05T04:57:22;98483.41;;;11.43;100.00
70815;BME280;58428;49.478;10.986;2023-01-05T04:59:47;98476.56;;;11.38;100.00
70815;BME280;58428;49.478;10.986;2023-01-05T05:02:13;98488.91;;;11.27;100.00
70815;BME280;58428;49.478;10.986;2023-01-05T05:04:38;98501.53;;;11.23;100.00
70815;BME280;58428;49.478;10.986;2023-01-05T05:07:03;98502.16;;;11.20;100.00
70815;BME280;58428;49.478;10.986;2023-01-05T05:09:29;98510.97;;;11.17;100.00
70815;BME280;58428;49.478;10.986;2023-01-05T05:11:54;98501.91;;;11.13;100.00
70815;BME280;58428;49.478;10.986;2023-01-05T05:14:20;98511.97;;;11.04;100.00
70815;BME280;58428;49.478;10.986;2023-01-05T05:16:45;98521.22;;;11.03;100.00
70815;BME280;58428;49.478;10.986;2023-01-05T05:19:10;98531.16;;;10.91;100.00
70815;BME280;58428;49.478;10.986;2023-01-05T05:21:36;98526.88;;;10.90;100.00
70815;BME280;58428;49.478;10.986;2023-01-05T05:24:02;98535.94;;;10.85;100.00
70815;BME280;58428;49.478;10.986;2023-01-05T05:26:28;98544.72;;;10.82;100.00
70815;BME280;58428;49.478;10.986;2023-01-05T05:28:56;98545.50;;;10.83;100.00
70815;BME280;58428;49.478;10.986;2023-01-05T05:31:22;98539.16;;;10.79;100.00
70815;BME280;58428;49.478;10.986;2023-01-05T05:33:47;98543.13;;;10.81;100.00
70815;BME280;58428;49.478;10.986;2023-01-05T05:36:14;98555.59;;;10.65;100.00
70815;BME280;58428;49.478;10.986;2023-01-05T05:38:40;98563.88;;;10.69;100.00
70815;BME280;58428;49.478;10.986;2023-01-05T05:41:05;98578.69;;;10.63;100.00
70815;BME280;58428;49.478;10.986;2023-01-05T05:43:31;98583.00;;;10.56;100.00
70815;BME280;58428;49.478;10.986;2023-01-05T05:45:57;98582.66;;;10.49;100.00
70815;BME280;58428;49.478;10.986;2023-01-05T05:48:23;98592.53;;;10.45;100.00
70815;BME280;58428;49.478;10.986;2023-01-05T05:50:49;98582.53;;;10.45;100.00
70815;BME280;58428;49.478;10.986;2023-01-05T05:53:16;98587.13;;;10.45;100.00
70815;BME280;58428;49.478;10.986;2023-01-05T05:55:41;98596.53;;;10.30;100.00
70815;BME280;58428;49.478;10.986;2023-01-05T05:58:08;98618.66;;;10.16;100.00
70815;BME280;58428;49.478;10.986;2023-01-05T06:00:33;98610.25;;;10.09;100.00
70815;BME280;58428;49.478;10.986;2023-01-05T06:02:59;98620.56;;;10.15;100.00
70815;BME280;58428;49.478;10.986;2023-01-05T06:05:24;98627.72;;;10.11;100.00
70815;BME280;58428;49.478;10.986;2023-01-05T06:07:50;98621.84;;;10.09;100.00
70815;BME280;58428;49.478;10.986;2023-01-05T06:10:15;98640.13;;;10.04;100.00
70815;BME280;58428;49.478;10.986;2023-01-05T06:12:40;98640.28;;;9.99;100.00
70815;BME280;58428;49.478;10.986;2023-01-05T06:15:06;98655.38;;;10.08;100.00
70815;BME280;58428;49.478;10.986;2023-01-05T06:17:32;98670.16;;;10.02;100.00
70815;BME280;58428;49.478;10.986;2023-01-05T06:19:57;98669.84;;;10.04;100.00
70815;BME280;58428;49.478;10.986;2023-01-05T06:22:23;98666.66;;;10.02;100.00
70815;BME280;58428;49.478;10.986;2023-01-05T06:24:51;98653.31;;;10.05;100.00
70815;BME280;58428;49.478;10.986;2023-01-05T06:27:16;98656.19;;;10.09;100.00
70815;BME280;58428;49.478;10.986;2023-01-05T06:29:42;98663.66;;;9.95;100.00
70815;BME280;58428;49.478;10.986;2023-01-05T06:32:07;98651.69;;;9.88;100.00
70815;BME280;58428;49.478;10.986;2023-01-05T06:34:33;98651.06;;;9.91;100.00
70815;BME280;58428;49.478;10.986;2023-01-05T06:36:59;98635.81;;;9.94;100.00
70815;BME280;58428;49.478;10.986;2023-01-05T06:39:25;98658.06;;;9.92;100.00
70815;BME280;58428;49.478;10.986;2023-01-05T06:41:50;98655.47;;;9.87;100.00
70815;BME280;58428;49.478;10.986;2023-01-05T06:44:16;98651.19;;;9.86;100.00
70815;BME280;58428;49.478;10.986;2023-01-05T06:46:41;98653.41;;;9.84;100.00
70815;BME280;58428;49.478;10.986;2023-01-05T06:49:10;98654.19;;;9.76;100.00
70815;BME280;58428;49.478;10.986;2023-01-05T06:51:36;98658.47;;;9.77;100.00
70815;BME280;58428;49.478;10.986;2023-01-05T06:54:01;98659.59;;;9.76;100.00
70815;BME280;58428;49.478;10.986;2023-01-05T06:56:27;98655.94;;;9.80;100.00
70815;BME280;58428;49.478;10.986;2023-01-05T06:58:52;98657.09;;;9.88;100.00
70815;BME280;58428;49.478;10.986;2023-01-05T07:01:17;98657.09;;;9.88;100.00
70815;BME280;58428;49.478;10.986;2023-01-05T07:03:43;98661.19;;;9.77;100.00
70815;BME280;58428;49.478;10.986;2023-01-05T07:06:13;98650.72;;;9.84;100.00
70815;BME280;58428;49.478;10.986;2023-01-05T07:08:38;98653.06;;;9.77;100.00
70815;BME280;58428;49.478;10.986;2023-01-05T07:11:04;98668.31;;;9.64;100.00
70815;BME280;58428;49.478;10.986;2023-01-05T07:13:29;98674.16;;;9.58;100.00
70815;BME280;58428;49.478;10.986;2023-01-05T07:15:55;98672.09;;;9.55;100.00
70815;BME280;58428;49.478;10.986;2023-01-05T07:18:20;98678.44;;;9.51;100.00
70815;BME280;58428;49.478;10.986;2023-01-05T07:20:46;98688.28;;;9.55;100.00
70815;BME280;58428;49.478;10.986;2023-01-05T07:23:11;98689.88;;;9.56;100.00
70815;BME280;58428;49.478;10.986;2023-01-05T07:25:36;98701.63;;;9.52;100.00
70815;BME280;58428;49.478;10.986;2023-01-05T07:28:02;98690.50;;;9.53;100.00
70815;BME280;58428;49.478;10.986;2023-01-05T07:30:27;98695.13;;;9.53;100.00
70815;BME280;58428;49.478;10.986;2023-01-05T07:32:57;98698.25;;;9.46;100.00
70815;BME280;58428;49.478;10.986;2023-01-05T07:35:23;98695.56;;;9.46;100.00
70815;BME280;58428;49.478;10.986;2023-01-05T07:37:48;98715.41;;;9.50;100.00
70815;BME280;58428;49.478;10.986;2023-01-05T07:40:14;98709.06;;;9.46;100.00
70815;BME280;58428;49.478;10.986;2023-01-05T07:42:39;98719.25;;;9.49;100.00
70815;BME280;58428;49.478;10.986;2023-01-05T07:45:06;98721.28;;;9.44;100.00
70815;BME280;58428;49.478;10.986;2023-01-05T07:47:31;98724.78;;;9.44;100.00
70815;BME280;58428;49.478;10.986;2023-01-05T07:49:57;98718.75;;;9.47;100.00
70815;BME280;58428;49.478;10.986;2023-01-05T07:52:23;98723.03;;;9.48;100.00
70815;BME280;58428;49.478;10.986;2023-01-05T07:54:49;98722.44;;;9.51;100.00
70815;BME280;58428;49.478;10.986;2023-01-05T07:57:14;98729.41;;;9.52;100.00
70815;BME280;58428;49.478;10.986;2023-01-05T07:59:40;98734.34;;;9.50;100.00
70815;BME280;58428;49.478;10.986;2023-01-05T08:04:30;98741.66;;;9.58;100.00
70815;BME280;58428;49.478;10.986;2023-01-05T08:06:57;98743.63;;;9.66;100.00
70815;BME280;58428;49.478;10.986;2023-01-05T08:09:22;98753.81;;;9.69;100.00
70815;BME280;58428;49.478;10.986;2023-01-05T08:12:07;98759.69;;;9.71;100.00
70815;BME280;58428;49.478;10.986;2023-01-05T08:14:32;98755.44;;;9.78;100.00
70815;BME280;58428;49.478;10.986;2023-01-05T08:16:58;98753.56;;;9.87;100.00
70815;BME280;58428;49.478;10.986;2023-01-05T08:19:23;98748.53;;;9.94;100.00
70815;BME280;58428;49.478;10.986;2023-01-05T08:21:49;98767.75;;;9.92;100.00
70815;BME280;58428;49.478;10.986;2023-01-05T08:24:14;98767.75;;;9.92;100.00
70815;BME280;58428;49.478;10.986;2023-01-05T08:26:40;98790.53;;;10.00;100.00
70815;BME280;58428;49.478;10.986;2023-01-05T08:29:05;98785.41;;;9.98;100.00
70815;BME280;58428;49.478;10.986;2023-01-05T08:31:33;98787.81;;;10.00;100.00
70815;BME280;58428;49.478;10.986;2023-01-05T08:34:02;98793.22;;;10.00;100.00
70815;BME280;58428;49.478;10.986;2023-01-05T08:36:29;98785.59;;;10.02;100.00
70815;BME280;58428;49.478;10.986;2023-01-05T08:39:01;98795.47;;;10.06;100.00
70815;BME280;58428;49.478;10.986;2023-01-05T08:41:36;98804.56;;;10.10;100.00
70815;BME280;58428;49.478;10.986;2023-01-05T08:44:12;98799.94;;;10.11;100.00
70815;BME280;58428;49.478;10.986;2023-01-05T08:46:40;98796.00;;;10.17;100.00
70815;BME280;58428;49.478;10.986;2023-01-05T08:49:07;98802.38;;;10.21;100.00
70815;BME280;58428;49.478;10.986;2023-01-05T08:51:33;98814.75;;;10.22;100.00
70815;BME280;58428;49.478;10.986;2023-01-05T08:54:00;98815.72;;;10.26;100.00
70815;BME280;58428;49.478;10.986;2023-01-05T08:56:26;98811.63;;;10.28;100.00
70815;BME280;58428;49.478;10.986;2023-01-05T08:58:52;98821.84;;;10.39;100.00
70815;BME280;58428;49.478;10.986;2023-01-05T09:01:20;98826.13;;;10.40;100.00
70815;BME280;58428;49.478;10.986;2023-01-05T09:03:49;98820.56;;;10.45;100.00
70815;BME280;58428;49.478;10.986;2023-01-05T09:06:15;98828.53;;;10.50;100.00
70815;BME280;58428;49.478;10.986;2023-01-05T09:08:45;98820.88;;;10.52;100.00
70815;BME280;58428;49.478;10.986;2023-01-05T09:11:13;98825.53;;;10.60;100.00
70815;BME280;58428;49.478;10.986;2023-01-05T09:13:40;98839.69;;;10.57;100.00
70815;BME280;58428;49.478;10.986;2023-01-05T09:16:08;98846.53;;;10.63;100.00
70815;BME280;58428;49.478;10.986;2023-01-05T09:18:36;98850.22;;;10.67;100.00
70815;BME280;58428;49.478;10.986;2023-01-05T09:21:02;98842.41;;;10.65;100.00
70815;BME280;58428;49.478;10.986;2023-01-05T09:23:30;98851.78;;;10.68;100.00
70815;BME280;58428;49.478;10.986;2023-01-05T09:25:56;98851.66;;;10.65;100.00
70815;BME280;58428;49.478;10.986;2023-01-05T09:28:21;98852.13;;;10.66;100.00
70815;BME280;58428;49.478;10.986;2023-01-05T09:30:46;98842.88;;;10.67;100.00
70815;BME280;58428;49.478;10.986;2023-01-05T09:33:12;98852.75;;;10.72;100.00
70815;BME280;58428;49.478;10.986;2023-01-05T09:35:38;98852.94;;;10.84;100.00
70815;BME280;58428;49.478;10.986;2023-01-05T09:38:05;98859.16;;;11.01;100.00
70815;BME280;58428;49.478;10.986;2023-01-05T09:40:38;98850.88;;;11.14;100.00
70815;BME280;58428;49.478;10.986;2023-01-05T09:43:05;98856.94;;;11.11;100.00
70815;BME280;58428;49.478;10.986;2023-01-05T09:45:32;98854.22;;;11.20;100.00
70815;BME280;58428;49.478;10.986;2023-01-05T09:47:59;98857.91;;;11.24;100.00
70815;BME280;58428;49.478;10.986;2023-01-05T09:50:28;98856.16;;;11.19;100.00
70815;BME280;58428;49.478;10.986;2023-01-05T09:53:00;98856.94;;;11.20;100.00
70815;BME280;58428;49.478;10.986;2023-01-05T09:55:28;98852.66;;;11.19;100.00
70815;BME280;58428;49.478;10.986;2023-01-05T09:58:09;98852.66;;;11.19;100.00
70815;BME280;58428;49.478;10.986;2023-01-05T10:00:40;98844.19;;;11.37;100.00
70815;BME280;58428;49.478;10.986;2023-01-05T10:03:14;98862.06;;;11.46;100.00
70815;BME280;58428;49.478;10.986;2023-01-05T10:05:45;98862.84;;;11.38;100.00
70815;BME280;58428;49.478;10.986;2023-01-05T10:10:46;98857.25;;;11.35;100.00
70815;BME280;58428;49.478;10.986;2023-01-05T10:13:33;98859.16;;;11.26;100.00
70815;BME280;58428;49.478;10.986;2023-01-05T10:16:01;98861.41;;;11.33;100.00
70815;BME280;58428;49.478;10.986;2023-01-05T10:18:28;98861.22;;;11.38;100.00
70815;BME280;58428;49.478;10.986;2023-01-05T10:21:58;98858.88;;;11.44;100.00
70815;BME280;58428;49.478;10.986;2023-01-05T10:24:38;98860.13;;;11.47;100.00
70815;BME280;58428;49.478;10.986;2023-01-05T10:27:21;98853.28;;;11.49;100.00
70815;BME280;58428;49.478;10.986;2023-01-05T10:29:58;98857.09;;;11.57;100.00
70815;BME280;58428;49.478;10.986;2023-01-05T10:32:49;98855.19;;;11.57;100.00
70815;BME280;58428;49.478;10.986;2023-01-05T10:40:44;98857.41;;;11.55;100.00
70815;BME280;58428;49.478;10.986;2023-01-05T10:43:27;98862.84;;;11.55;100.00
70815;BME280;58428;49.478;10.986;2023-01-05T10:45:57;98857.72;;;11.62;100.00
70815;BME280;58428;49.478;10.986;2023-01-05T10:48:27;98862.22;;;11.58;100.00
70815;BME280;58428;49.478;10.986;2023-01-05T10:50:56;98870.03;;;11.60;100.00
70815;BME280;58428;49.478;10.986;2023-01-05T10:53:28;98865.88;;;11.45;100.00
70815;BME280;58428;49.478;10.986;2023-01-05T10:56:05;98864.28;;;11.44;100.00
70815;BME280;58428;49.478;10.986;2023-01-05T10:58:37;98858.22;;;11.56;100.00
70815;BME280;58428;49.478;10.986;2023-01-05T11:01:27;98866.34;;;11.64;100.00
70815;BME280;58428;49.478;10.986;2023-01-05T11:04:03;98855.19;;;11.57;100.00
70815;BME280;58428;49.478;10.986;2023-01-05T11:06:34;98861.88;;;11.60;100.00
70815;BME280;58428;49.478;10.986;2023-01-05T11:09:29;98878.97;;;11.52;100.00
70815;BME280;58428;49.478;10.986;2023-01-05T11:12:00;98870.50;;;11.45;100.00
70815;BME280;58428;49.478;10.986;2023-01-05T11:14:32;98878.63;;;11.45;100.00
70815;BME280;58428;49.478;10.986;2023-01-05T11:17:05;98887.91;;;11.44;100.00
70815;BME280;58428;49.478;10.986;2023-01-05T11:19:35;98884.19;;;11.40;100.00
70815;BME280;58428;49.478;10.986;2023-01-05T11:22:02;98889.63;;;11.48;100.00
70815;BME280;58428;49.478;10.986;2023-01-05T11:26:58;98889.16;;;11.46;100.00
70815;BME280;58428;49.478;10.986;2023-01-05T11:29:28;98894.38;;;11.43;100.00
70815;BME280;58428;49.478;10.986;2023-01-05T11:31:59;98894.56;;;11.38;100.00
70815;BME280;58428;49.478;10.986;2023-01-05T11:37:30;98893.25;;;11.36;100.00
70815;BME280;58428;49.478;10.986;2023-01-05T11:47:42;98881.50;;;11.48;100.00
70815;BME280;58428;49.478;10.986;2023-01-05T11:50:27;98897.75;;;11.48;100.00
70815;BME280;58428;49.478;10.986;2023-01-05T11:52:58;98884.69;;;11.50;100.00
70815;BME280;58428;49.478;10.986;2023-01-05T11:55:36;98888.34;;;11.54;100.00
70815;BME280;58428;49.478;10.986;2023-01-05T11:58:23;98879.75;;;11.44;100.00
70815;BME280;58428;49.478;10.986;2023-01-05T12:09:43;98867.59;;;11.41;100.00
70815;BME280;58428;49.478;10.986;2023-01-05T12:12:37;98881.81;;;11.38;100.00
70815;BME280;58428;49.478;10.986;2023-01-05T12:19:08;98877.19;;;11.31;100.00
70815;BME280;58428;49.478;10.986;2023-01-05T12:21:11;98874.63;;;11.26;100.00
70815;BME280;58428;49.478;10.986;2023-01-05T12:40:31;98876.69;;;11.12;100.00
70815;BME280;58428;49.478;10.986;2023-01-05T12:43:09;98882.91;;;11.04;100.00
70815;BME280;58428;49.478;10.986;2023-01-05T12:48:45;98898.31;;;10.87;100.00
70815;BME280;58428;49.478;10.986;2023-01-05T12:51:40;98903.91;;;10.90;100.00
70815;BME280;58428;49.478;10.986;2023-01-05T12:54:30;98894.66;;;10.91;100.00
70815;BME280;58428;49.478;10.986;2023-01-05T12:59:56;98903.44;;;10.97;100.00
70815;BME280;58428;49.478;10.986;2023-01-05T13:02:35;98899.28;;;10.99;100.00
70815;BME280;58428;49.478;10.986;2023-01-05T13:05:20;98894.22;;;11.14;100.00
70815;BME280;58428;49.478;10.986;2023-01-05T13:08:01;98887.38;;;11.17;100.00
70815;BME280;58428;49.478;10.986;2023-01-05T13:13:53;98890.09;;;11.42;100.00
70815;BME280;58428;49.478;10.986;2023-01-05T13:16:22;98884.81;;;11.37;100.00
70815;BME280;58428;49.478;10.986;2023-01-05T13:19:17;98892.31;;;11.32;100.00
70815;BME280;58428;49.478;10.986;2023-01-05T13:21:42;98877.66;;;11.41;100.00
70815;BME280;58428;49.478;10.986;2023-01-05T13:24:15;98884.66;;;11.59;100.00
70815;BME280;58428;49.478;10.986;2023-01-05T13:26:47;98881.28;;;11.78;100.00
70815;BME280;58428;49.478;10.986;2023-01-05T13:29:25;98864.34;;;11.90;100.00
70815;BME280;58428;49.478;10.986;2023-01-05T13:32:03;98874.88;;;11.91;100.00
70815;BME280;58428;49.478;10.986;2023-01-05T13:34:46;98871.56;;;11.77;100.00
70815;BME280;58428;49.478;10.986;2023-01-05T13:43:06;98880.84;;;11.35;100.00
70815;BME280;58428;49.478;10.986;2023-01-05T13:51:56;98898.69;;;11.36;100.00
70815;BME280;58428;49.478;10.986;2023-01-05T13:54:45;98894.41;;;11.35;100.00
70815;BME280;58428;49.478;10.986;2023-01-05T13:57:20;98895.81;;;11.32;100.00
70815;BME280;58428;49.478;10.986;2023-01-05T13:59:52;98902.53;;;11.35;100.00
70815;BME280;58428;49.478;10.986;2023-01-05T14:02:36;98895.81;;;11.32;100.00
70815;BME280;58428;49.478;10.986;2023-01-05T14:05:15;98900.28;;;11.28;100.00
70815;BME280;58428;49.478;10.986;2023-01-05T14:07:46;98905.88;;;11.15;100.00
70815;BME280;58428;49.478;10.986;2023-01-05T14:10:21;98905.34;;;11.04;100.00
70815;BME280;58428;49.478;10.986;2023-01-05T14:12:49;98906.94;;;10.89;100.00
70815;BME280;58428;49.478;10.986;2023-01-05T14:15:39;98911.06;;;10.86;100.00
70815;BME280;58428;49.478;10.986;2023-01-05T14:21:16;98922.34;;;10.80;100.00
70815;BME280;58428;49.478;10.986;2023-01-05T14:23:57;98922.34;;;10.80;100.00
70815;BME280;58428;49.478;10.986;2023-01-05T14:26:58;98933.81;;;10.77;100.00
70815;BME280;58428;49.478;10.986;2023-01-05T14:32:40;98935.53;;;10.65;100.00
70815;BME280;58428;49.478;10.986;2023-01-05T14:40:47;98935.47;;;10.56;100.00
70815;BME280;58428;49.478;10.986;2023-01-05T14:43:41;98944.72;;;10.55;100.00
70815;BME280;58428;49.478;10.986;2023-01-05T14:46:11;98946.13;;;10.53;100.00
70815;BME280;58428;49.478;10.986;2023-01-05T14:48:59;98960.78;;;10.52;100.00
70815;BME280;58428;49.478;10.986;2023-01-05T14:51:28;98964.72;;;10.46;100.00